sensor_id;sensor_type;location;lat;lon;timestamp;pressure;altitude;pressure_sealevel;temperature;humidity
35419;BME280;21525;41.240;16.500;2023-02-12T00:01:19;102952.41;;;14.33;51.59
35419;BME280;21525;41.240;16.500;2023-02-12T00:03:46;102949.63;;;14.07;52.03
35419;BME280;21525;41.240;16.500;2023-02-12T00:06:12;102946.28;;;14.26;51.95
35419;BME280;21525;41.240;16.500;2023-02-12T00:08:39;102949.63;;;14.08;52.35
35419;BME280;21525;41.240;16.500;2023-02-12T00:11:16;102943.41;;;13.91;51.84
35419;BME280;21525;41.240;16.500;2023-02-12T00:13:42;102933.84;;;13.95;52.08
35419;BME280;21525;41.240;16.500;2023-02-12T00:16:10;102939.28;;;14.25;51.65
35419;BME280;21525;41.240;16.500;2023-02-12T00:18:37;102935.72;;;14.14;51.63
35419;BME280;21525;41.240;16.500;2023-02-12T00:21:04;102934.72;;;13.98;51.79
35419;BME280;21525;41.240;16.500;2023-02-12T00:23:30;102933.06;;;14.09;51.21
35419;BME280;21525;41.240;16.500;2023-02-12T00:25:56;102934.50;;;13.74;52.10
35419;BME280;21525;41.240;16.500;2023-02-12T00:28:22;102934.72;;;13.97;52.03
35419;BME280;21525;41.240;16.500;2023-02-12T00:30:48;102931.25;;;14.02;51.36
35419;BME280;21525;41.240;16.500;2023-02-12T00:33:14;102928.34;;;13.69;51.79
35419;BME280;21525;41.240;16.500;2023-02-12T00:35:40;102921.41;;;13.71;51.84
35419;BME280;21525;41.240;16.500;2023-02-12T00:38:06;102919.94;;;14.03;51.60
35419;BME280;21525;41.240;16.500;2023-02-12T00:40:31;102926.97;;;14.12;51.30
35419;BME280;21525;41.240;16.500;2023-02-12T00:42:58;102928.47;;;13.81;51.34
35419;BME280;21525;41.240;16.500;2023-02-12T00:45:25;102911.84;;;13.74;51.81
35419;BME280;21525;41.240;16.500;2023-02-12T00:47:51;102915.53;;;13.96;51.24
35419;BME280;21525;41.240;16.500;2023-02-12T00:50:17;102909.44;;;14.00;51.32
35419;BME280;21525;41.240;16.500;2023-02-12T00:52:42;102906.13;;;14.23;50.57
35419;BME280;21525;41.240;16.500;2023-02-12T00:55:08;102908.53;;;13.92;50.93
35419;BME280;21525;41.240;16.500;2023-02-12T00:57:34;102909.34;;;13.88;50.90
35419;BME280;21525;41.240;16.500;2023-02-12T01:00:00;102913.75;;;13.92;51.08
35419;BME280;21525;41.240;16.500;2023-02-12T01:02:26;102907.66;;;13.98;50.43
35419;BME280;21525;41.240;16.500;2023-02-12T01:04:52;102902.28;;;13.76;50.89
35419;BME280;21525;41.240;16.500;2023-02-12T01:07:17;102907.41;;;13.63;50.63
35419;BME280;21525;41.240;16.500;2023-02-12T01:09:43;102901.56;;;13.94;49.99
35419;BME280;21525;41.240;16.500;2023-02-12T01:12:09;102903.38;;;14.04;49.80
35419;BME280;21525;41.240;16.500;2023-02-12T01:14:35;102900.28;;;13.48;50.74
35419;BME280;21525;41.240;16.500;2023-02-12T01:17:02;102905.66;;;13.63;50.34
35419;BME280;21525;41.240;16.500;2023-02-12T01:19:28;102906.81;;;14.00;50.25
35419;BME280;21525;41.240;16.500;2023-02-12T01:21:54;102900.53;;;13.75;50.82
35419;BME280;21525;41.240;16.500;2023-02-12T01:24:19;102898.78;;;13.77;50.32
35419;BME280;21525;41.240;16.500;2023-02-12T01:26:45;102904.03;;;13.79;50.03
35419;BME280;21525;41.240;16.500;2023-02-12T01:29:11;102895.97;;;13.52;50.46
35419;BME280;21525;41.240;16.500;2023-02-12T01:31:38;102901.28;;;13.61;50.47
35419;BME280;21525;41.240;16.500;2023-02-12T01:34:05;102895.75;;;13.33;51.06
35419;BME280;21525;41.240;16.500;2023-02-12T01:36:32;102887.31;;;13.59;50.51
35419;BME280;21525;41.240;16.500;2023-02-12T01:38:58;102891.66;;;13.57;50.04
35419;BME280;21525;41.240;16.500;2023-02-12T01:41:33;102882.94;;;13.58;50.51
35419;BME280;21525;41.240;16.500;2023-02-12T01:46:31;102874.88;;;13.35;50.59
35419;BME280;21525;41.240;16.500;2023-02-12T01:48:56;102880.31;;;13.55;50.62
35419;BME280;21525;41.240;16.500;2023-02-12T01:51:23;102879.63;;;13.80;49.85
35419;BME280;21525;41.240;16.500;2023-02-12T01:53:52;102884.84;;;13.78;49.48
35419;BME280;21525;41.240;16.500;2023-02-12T01:56:19;102882.38;;;13.98;49.13
35419;BME280;21525;41.240;16.500;2023-02-12T01:58:47;102883.06;;;13.73;49.38
35419;BME280;21525;41.240;16.500;2023-02-12T02:01:19;102874.38;;;13.77;49.46
35419;BME280;21525;41.240;16.500;2023-02-12T02:03:49;102867.31;;;13.68;49.26
35419;BME280;21525;41.240;16.500;2023-02-12T02:07:05;102858.59;;;13.66;49.05
35419;BME280;21525;41.240;16.500;2023-02-12T02:09:15;102863.75;;;13.56;49.76
35419;BME280;21525;41.240;16.500;2023-02-12T02:11:41;102856.16;;;13.88;49.10
35419;BME280;21525;41.240;16.500;2023-02-12T02:14:26;102862.66;;;13.31;49.44
35419;BME280;21525;41.240;16.500;2023-02-12T02:22:51;102830.41;;;13.33;49.67
35419;BME280;21525;41.240;16.500;2023-02-12T02:33:57;102842.03;;;13.63;48.09
35419;BME280;21525;41.240;16.500;2023-02-12T02:36:48;102833.94;;;13.35;48.65
35419;BME280;21525;41.240;16.500;2023-02-12T02:39:17;102837.66;;;13.65;48.16
35419;BME280;21525;41.240;16.500;2023-02-12T02:41:50;102826.84;;;13.21;49.13
35419;BME280;21525;41.240;16.500;2023-02-12T02:44:34;102829.44;;;13.19;48.80
35419;BME280;21525;41.240;16.500;2023-02-12T02:47:04;102827.97;;;13.52;48.46
35419;BME280;21525;41.240;16.500;2023-02-12T02:49:44;102829.47;;;13.24;48.91
35419;BME280;21525;41.240;16.500;2023-02-12T02:52:15;102821.00;;;13.51;47.82
35419;BME280;21525;41.240;16.500;2023-02-12T02:54:52;102822.25;;;13.03;49.61
35419;BME280;21525;41.240;16.500;2023-02-12T02:57:26;102820.16;;;13.55;48.52
35419;BME280;21525;41.240;16.500;2023-02-12T02:59:57;102829.78;;;12.74;49.98
35419;BME280;21525;41.240;16.500;2023-02-12T03:02:32;102815.47;;;13.17;49.21
35419;BME280;21525;41.240;16.500;2023-02-12T03:05:09;102819.47;;;12.85;50.04
35419;BME280;21525;41.240;16.500;2023-02-12T03:07:44;102824.25;;;13.24;49.59
35419;BME280;21525;41.240;16.500;2023-02-12T03:10:26;102828.19;;;12.85;49.54
35419;BME280;21525;41.240;16.500;2023-02-12T03:13:06;102826.63;;;13.04;49.17
35419;BME280;21525;41.240;16.500;2023-02-12T03:15:44;102820.94;;;13.43;48.31
35419;BME280;21525;41.240;16.500;2023-02-12T03:18:17;102817.00;;;13.00;48.83
35419;BME280;21525;41.240;16.500;2023-02-12T03:20:47;102815.63;;;13.31;48.31
35419;BME280;21525;41.240;16.500;2023-02-12T03:23:21;102811.25;;;13.31;47.88
35419;BME280;21525;41.240;16.500;2023-02-12T03:25:54;102811.16;;;13.21;48.17
35419;BME280;21525;41.240;16.500;2023-02-12T03:28:33;102814.03;;;13.53;47.28
35419;BME280;21525;41.240;16.500;2023-02-12T03:34:03;102802.63;;;13.41;47.78
35419;BME280;21525;41.240;16.500;2023-02-12T03:39:19;102801.78;;;13.45;47.15
35419;BME280;21525;41.240;16.500;2023-02-12T03:44:53;102799.00;;;14.59;45.44
35419;BME280;21525;41.240;16.500;2023-02-12T03:50:17;102794.97;;;13.64;46.50
35419;BME280;21525;41.240;16.500;2023-02-12T03:52:46;102793.41;;;13.98;45.73
35419;BME280;21525;41.240;16.500;2023-02-12T03:55:15;102797.72;;;13.87;45.70
35419;BME280;21525;41.240;16.500;2023-02-12T03:57:44;102790.81;;;13.95;45.78
35419;BME280;21525;41.240;16.500;2023-02-12T04:00:15;102790.22;;;14.50;44.88
35419;BME280;21525;41.240;16.500;2023-02-12T04:02:42;102787.47;;;14.25;45.04
35419;BME280;21525;41.240;16.500;2023-02-12T04:05:16;102795.97;;;13.83;45.04
35419;BME280;21525;41.240;16.500;2023-02-12T04:07:42;102784.72;;;14.02;45.11
35419;BME280;21525;41.240;16.500;2023-02-12T04:10:08;102783.72;;;13.77;45.42
35419;BME280;21525;41.240;16.500;2023-02-12T04:12:51;102786.81;;;13.26;46.25
35419;BME280;21525;41.240;16.500;2023-02-12T04:15:42;102786.38;;;13.85;45.53
35419;BME280;21525;41.240;16.500;2023-02-12T04:18:45;102784.50;;;13.63;45.07
35419;BME280;21525;41.240;16.500;2023-02-12T04:26:48;102782.75;;;13.68;44.83
35419;BME280;21525;41.240;16.500;2023-02-12T04:29:27;102785.66;;;14.12;43.57
35419;BME280;21525;41.240;16.500;2023-02-12T04:32:08;102790.00;;;14.10;44.20
35419;BME280;21525;41.240;16.500;2023-02-12T04:34:38;102792.56;;;14.01;43.56
35419;BME280;21525;41.240;16.500;2023-02-12T04:39:52;102790.59;;;13.65;44.61
35419;BME280;21525;41.240;16.500;2023-02-12T04:42:19;102789.50;;;13.37;44.94
35419;BME280;21525;41.240;16.500;2023-02-12T04:44:45;102786.28;;;13.70;44.21
35419;BME280;21525;41.240;16.500;2023-02-12T04:47:12;102784.34;;;13.46;44.07
35419;BME280;21525;41.240;16.500;2023-02-12T04:49:38;102781.00;;;13.61;43.67
35419;BME280;21525;41.240;16.500;2023-02-12T04:52:03;102782.88;;;13.83;43.12
35419;BME280;21525;41.240;16.500;2023-02-12T04:54:29;102786.41;;;13.88;43.08
35419;BME280;21525;41.240;16.500;2023-02-12T04:56:55;102785.28;;;13.51;43.89
35419;BME280;21525;41.240;16.500;2023-02-12T04:59:21;102787.81;;;13.42;43.67
35419;BME280;21525;41.240;16.500;2023-02-12T05:01:46;102779.22;;;13.57;43.29
35419;BME280;21525;41.240;16.500;2023-02-12T05:04:14;102785.34;;;13.60;43.34
35419;BME280;21525;41.240;16.500;2023-02-12T05:06:41;102788.91;;;13.74;43.10
35419;BME280;21525;41.240;16.500;2023-02-12T05:09:07;102789.72;;;13.66;43.40
35419;BME280;21525;41.240;16.500;2023-02-12T05:11:34;102785.34;;;13.59;43.37
35419;BME280;21525;41.240;16.500;2023-02-12T05:14:00;102790.72;;;13.83;42.82
35419;BME280;21525;41.240;16.500;2023-02-12T05:16:26;102801.91;;;13.61;42.70
35419;BME280;21525;41.240;16.500;2023-02-12T05:18:52;102794.06;;;13.59;43.23
35419;BME280;21525;41.240;16.500;2023-02-12T05:21:17;102796.63;;;13.55;43.12
35419;BME280;21525;41.240;16.500;2023-02-12T05:23:43;102791.78;;;14.14;42.20
35419;BME280;21525;41.240;16.500;2023-02-12T05:26:19;102788.31;;;14.17;42.14
35419;BME280;21525;41.240;16.500;2023-02-12T05:28:46;102790.41;;;13.40;43.43
35419;BME280;21525;41.240;16.500;2023-02-12T05:31:15;102794.13;;;13.71;42.75
35419;BME280;21525;41.240;16.500;2023-02-12T05:33:45;102796.19;;;14.24;42.17
35419;BME280;21525;41.240;16.500;2023-02-12T05:36:17;102798.56;;;13.83;42.33
35419;BME280;21525;41.240;16.500;2023-02-12T05:38:43;102798.56;;;13.83;42.62
35419;BME280;21525;41.240;16.500;2023-02-12T05:41:12;102805.50;;;13.75;42.68
35419;BME280;21525;41.240;16.500;2023-02-12T05:43:38;102804.81;;;14.05;42.31
35419;BME280;21525;41.240;16.500;2023-02-12T05:46:05;102807.22;;;13.73;42.92
35419;BME280;21525;41.240;16.500;2023-02-12T05:48:32;102812.63;;;14.00;42.67
35419;BME280;21525;41.240;16.500;2023-02-12T05:51:03;102813.28;;;13.64;43.59
35419;BME280;21525;41.240;16.500;2023-02-12T05:53:29;102819.44;;;13.77;43.00
35419;BME280;21525;41.240;16.500;2023-02-12T05:56:21;102809.25;;;14.20;43.05
35419;BME280;21525;41.240;16.500;2023-02-12T05:58:51;102814.38;;;14.01;42.73
35419;BME280;21525;41.240;16.500;2023-02-12T06:01:21;102816.91;;;13.85;43.22
35419;BME280;21525;41.240;16.500;2023-02-12T06:03:47;102817.97;;;14.16;42.88
35419;BME280;21525;41.240;16.500;2023-02-12T06:06:13;102818.09;;;14.41;42.40
35419;BME280;21525;41.240;16.500;2023-02-12T06:08:39;102825.47;;;13.68;43.24
35419;BME280;21525;41.240;16.500;2023-02-12T06:11:09;102827.53;;;14.10;42.92
35419;BME280;21525;41.240;16.500;2023-02-12T06:13:35;102831.13;;;14.28;42.55
35419;BME280;21525;41.240;16.500;2023-02-12T06:16:01;102837.06;;;14.02;43.20
35419;BME280;21525;41.240;16.500;2023-02-12T06:18:26;102833.78;;;14.40;42.11
35419;BME280;21525;41.240;16.500;2023-02-12T06:20:52;102832.97;;;14.44;42.10
35419;BME280;21525;41.240;16.500;2023-02-12T06:23:22;102838.28;;;14.67;42.09
35419;BME280;21525;41.240;16.500;2023-02-12T06:25:49;102841.06;;;15.23;41.13
35419;BME280;21525;41.240;16.500;2023-02-12T06:28:16;102840.06;;;14.77;41.80
35419;BME280;21525;41.240;16.500;2023-02-12T06:30:42;102835.81;;;15.26;41.16
35419;BME280;21525;41.240;16.500;2023-02-12T06:33:08;102838.22;;;14.47;41.64
35419;BME280;21525;41.240;16.500;2023-02-12T06:35:34;102832.16;;;14.63;42.28
35419;BME280;21525;41.240;16.500;2023-02-12T06:38:00;102832.97;;;14.47;42.10
35419;BME280;21525;41.240;16.500;2023-02-12T06:40:26;102829.66;;;15.09;41.28
35419;BME280;21525;41.240;16.500;2023-02-12T06:42:52;102824.31;;;14.71;42.04
35419;BME280;21525;41.240;16.500;2023-02-12T06:45:18;102824.34;;;14.74;41.87
35419;BME280;21525;41.240;16.500;2023-02-12T06:47:44;102818.25;;;14.76;42.42
35419;BME280;21525;41.240;16.500;2023-02-12T06:50:10;102812.97;;;14.67;42.24
35419;BME280;21525;41.240;16.500;2023-02-12T06:52:36;102810.44;;;15.33;41.82
35419;BME280;21525;41.240;16.500;2023-02-12T06:55:02;102817.44;;;15.06;41.50
35419;BME280;21525;41.240;16.500;2023-02-12T06:57:28;102805.22;;;15.33;42.02
35419;BME280;21525;41.240;16.500;2023-02-12T06:59:54;102811.31;;;15.33;41.98
35419;BME280;21525;41.240;16.500;2023-02-12T07:02:20;102807.81;;;15.30;41.79
35419;BME280;21525;41.240;16.500;2023-02-12T07:04:46;102810.44;;;15.10;42.22
35419;BME280;21525;41.240;16.500;2023-02-12T07:07:12;102819.19;;;15.17;42.18
35419;BME280;21525;41.240;16.500;2023-02-12T07:09:38;102810.47;;;15.39;42.05
35419;BME280;21525;41.240;16.500;2023-02-12T07:12:04;102811.34;;;15.52;42.00
35419;BME280;21525;41.240;16.500;2023-02-12T07:14:30;102813.97;;;15.20;42.67
35419;BME280;21525;41.240;16.500;2023-02-12T07:16:56;102800.84;;;15.82;41.77
35419;BME280;21525;41.240;16.500;2023-02-12T07:19:22;102808.72;;;15.76;41.69
35419;BME280;21525;41.240;16.500;2023-02-12T07:21:48;102815.72;;;15.69;42.19
35419;BME280;21525;41.240;16.500;2023-02-12T07:24:14;102814.81;;;15.28;42.67
35419;BME280;21525;41.240;16.500;2023-02-12T07:26:43;102813.09;;;15.71;42.46
35419;BME280;21525;41.240;16.500;2023-02-12T07:29:09;102820.09;;;15.83;42.25
35419;BME280;21525;41.240;16.500;2023-02-12T07:31:35;102808.72;;;15.38;42.93
35419;BME280;21525;41.240;16.500;2023-02-12T07:34:00;102813.97;;;15.26;43.42
35419;BME280;21525;41.240;16.500;2023-02-12T07:36:28;102804.34;;;15.75;42.89
35419;BME280;21525;41.240;16.500;2023-02-12T07:38:55;102814.78;;;16.02;41.96
35419;BME280;21525;41.240;16.500;2023-02-12T07:41:33;102811.28;;;16.06;42.08
35419;BME280;21525;41.240;16.500;2023-02-12T07:44:07;102816.59;;;15.52;43.06
35419;BME280;21525;41.240;16.500;2023-02-12T07:46:39;102811.16;;;16.46;41.71
35419;BME280;21525;41.240;16.500;2023-02-12T07:49:06;102812.22;;;15.63;42.97
35419;BME280;21525;41.240;16.500;2023-02-12T07:51:33;102821.84;;;15.88;42.90
35419;BME280;21525;41.240;16.500;2023-02-12T07:54:00;102827.03;;;16.06;42.69
35419;BME280;21525;41.240;16.500;2023-02-12T07:56:29;102821.78;;;15.99;42.29
35419;BME280;21525;41.240;16.500;2023-02-12T07:59:05;102830.44;;;16.42;42.02
35419;BME280;21525;41.240;16.500;2023-02-12T08:01:34;102823.41;;;16.50;41.55
35419;BME280;21525;41.240;16.500;2023-02-12T08:04:03;102820.69;;;16.67;41.37
35419;BME280;21525;41.240;16.500;2023-02-12T08:06:31;102823.31;;;16.71;41.36
35419;BME280;21525;41.240;16.500;2023-02-12T08:08:59;102820.75;;;16.52;41.19
35419;BME280;21525;41.240;16.500;2023-02-12T08:11:26;102822.63;;;16.21;41.55
35419;BME280;21525;41.240;16.500;2023-02-12T08:13:53;102825.97;;;16.64;41.34
35419;BME280;21525;41.240;16.500;2023-02-12T08:16:23;102818.72;;;17.07;40.70
35419;BME280;21525;41.240;16.500;2023-02-12T08:18:50;102826.47;;;17.24;39.77
35419;BME280;21525;41.240;16.500;2023-02-12T08:21:22;102832.06;;;16.75;40.80
35419;BME280;21525;41.240;16.500;2023-02-12T08:23:49;102832.94;;;16.62;40.90
35419;BME280;21525;41.240;16.500;2023-02-12T08:28:49;102843.47;;;16.57;40.77
35419;BME280;21525;41.240;16.500;2023-02-12T08:31:21;102836.50;;;16.55;41.05
35419;BME280;21525;41.240;16.500;2023-02-12T08:33:48;102846.91;;;16.82;40.84
35419;BME280;21525;41.240;16.500;2023-02-12T08:36:18;102843.91;;;17.38;39.82
35419;BME280;21525;41.240;16.500;2023-02-12T08:38:45;102847.69;;;16.96;40.50
35419;BME280;21525;41.240;16.500;2023-02-12T08:41:22;102844.00;;;17.23;39.86
35419;BME280;21525;41.240;16.500;2023-02-12T08:43:51;102850.06;;;17.36;39.74
35419;BME280;21525;41.240;16.500;2023-02-12T08:46:23;102847.72;;;16.92;39.62
35419;BME280;21525;41.240;16.500;2023-02-12T08:48:52;102861.84;;;16.63;40.18
35419;BME280;21525;41.240;16.500;2023-02-12T08:51:21;102869.72;;;16.74;39.86
35419;BME280;21525;41.240;16.500;2023-02-12T08:53:50;102869.53;;;17.12;39.43
35419;BME280;21525;41.240;16.500;2023-02-12T08:56:16;102874.75;;;17.21;39.58
35419;BME280;21525;41.240;16.500;2023-02-12T08:58:43;102874.63;;;17.35;39.19
35419;BME280;21525;41.240;16.500;2023-02-12T09:01:15;102869.34;;;17.36;38.84
35419;BME280;21525;41.240;16.500;2023-02-12T09:03:42;102868.44;;;17.42;39.17
35419;BME280;21525;41.240;16.500;2023-02-12T09:06:08;102873.66;;;17.50;38.88
35419;BME280;21525;41.240;16.500;2023-02-12T09:08:35;102870.31;;;17.23;39.54
35419;BME280;21525;41.240;16.500;2023-02-12T09:11:07;102879.13;;;17.19;39.45
35419;BME280;21525;41.240;16.500;2023-02-12T09:13:34;102887.09;;;17.07;39.41
35419;BME280;21525;41.240;16.500;2023-02-12T09:16:02;102884.53;;;16.92;39.71
35419;BME280;21525;41.240;16.500;2023-02-12T09:18:29;102884.88;;;17.74;38.77
35419;BME280;21525;41.240;16.500;2023-02-12T09:21:02;102877.91;;;17.61;38.55
35419;BME280;21525;41.240;16.500;2023-02-12T09:23:28;102880.81;;;17.23;39.01
35419;BME280;21525;41.240;16.500;2023-02-12T09:25:54;102884.03;;;17.71;38.62
35419;BME280;21525;41.240;16.500;2023-02-12T09:28:20;102883.19;;;17.67;38.46
35419;BME280;21525;41.240;16.500;2023-02-12T09:30:46;102869.94;;;17.78;38.74
35419;BME280;21525;41.240;16.500;2023-02-12T09:33:12;102875.19;;;17.78;38.52
35419;BME280;21525;41.240;16.500;2023-02-12T09:35:38;102868.81;;;18.02;38.37
35419;BME280;21525;41.240;16.500;2023-02-12T09:38:05;102870.19;;;17.41;38.87
35419;BME280;21525;41.240;16.500;2023-02-12T09:46:27;102855.09;;;17.68;38.94
35419;BME280;21525;41.240;16.500;2023-02-12T09:49:02;102855.69;;;16.83;40.07
35419;BME280;21525;41.240;16.500;2023-02-12T09:51:32;102856.00;;;17.61;39.42
35419;BME280;21525;41.240;16.500;2023-02-12T09:54:05;102851.59;;;17.67;39.34
35419;BME280;21525;41.240;16.500;2023-02-12T09:56:34;102843.66;;;17.70;39.44
35419;BME280;21525;41.240;16.500;2023-02-12T09:59:05;102836.91;;;17.37;40.10
35419;BME280;21525;41.240;16.500;2023-02-12T10:01:32;102827.59;;;17.99;39.30
35419;BME280;21525;41.240;16.500;2023-02-12T10:03:58;102833.47;;;17.26;40.50
35419;BME280;21525;41.240;16.500;2023-02-12T10:06:27;102829.09;;;17.25;40.54
35419;BME280;21525;41.240;16.500;2023-02-12T10:11:40;102845.47;;;17.61;40.40
35419;BME280;21525;41.240;16.500;2023-02-12T10:27:41;102830.31;;;17.89;40.49
35419;BME280;21525;41.240;16.500;2023-02-12T10:30:24;102831.09;;;18.75;39.37
35419;BME280;21525;41.240;16.500;2023-02-12T10:33:03;102845.56;;;18.40;39.58
35419;BME280;21525;41.240;16.500;2023-02-12T10:35:31;102847.16;;;18.52;40.05
35419;BME280;21525;41.240;16.500;2023-02-12T10:38:05;102846.47;;;18.39;39.94
35419;BME280;21525;41.240;16.500;2023-02-12T10:40:33;102839.97;;;19.28;39.18
35419;BME280;21525;41.240;16.500;2023-02-12T10:43:01;102825.69;;;19.41;38.75
35419;BME280;21525;41.240;16.500;2023-02-12T10:45:33;102830.81;;;20.01;38.46
35419;BME280;21525;41.240;16.500;2023-02-12T10:48:13;102827.47;;;19.40;39.48
35419;BME280;21525;41.240;16.500;2023-02-12T10:53:24;102808.06;;;19.44;39.38
35419;BME280;21525;41.240;16.500;2023-02-12T10:58:40;102814.09;;;19.51;39.32
35419;BME280;21525;41.240;16.500;2023-02-12T11:03:47;102810.72;;;19.92;38.79
35419;BME280;21525;41.240;16.500;2023-02-12T11:06:16;102814.47;;;19.27;39.96
35419;BME280;21525;41.240;16.500;2023-02-12T11:08:42;102812.03;;;19.70;39.24
35419;BME280;21525;41.240;16.500;2023-02-12T11:13:43;102815.50;;;18.55;41.22
35419;BME280;21525;41.240;16.500;2023-02-12T11:16:10;102806.59;;;19.25;40.67
35419;BME280;21525;41.240;16.500;2023-02-12T11:18:36;102809.94;;;19.36;40.57
35419;BME280;21525;41.240;16.500;2023-02-12T11:21:06;102793.38;;;19.27;40.69
35419;BME280;21525;41.240;16.500;2023-02-12T11:23:39;102800.63;;;19.14;40.50
35419;BME280;21525;41.240;16.500;2023-02-12T11:28:53;102803.19;;;19.72;39.45
35419;BME280;21525;41.240;16.500;2023-02-12T11:31:31;102799.44;;;19.33;40.19
35419;BME280;21525;41.240;16.500;2023-02-12T11:34:16;102788.22;;;19.73;39.62
35419;BME280;21525;41.240;16.500;2023-02-12T11:36:45;102794.78;;;19.49;39.80
35419;BME280;21525;41.240;16.500;2023-02-12T11:39:25;102802.00;;;19.87;38.96
35419;BME280;21525;41.240;16.500;2023-02-12T11:41:54;102794.00;;;20.38;38.62
35419;BME280;21525;41.240;16.500;2023-02-12T11:46:52;102781.19;;;20.15;38.75
35419;BME280;21525;41.240;16.500;2023-02-12T11:49:23;102786.75;;;20.85;38.36
35419;BME280;21525;41.240;16.500;2023-02-12T11:51:50;102778.75;;;20.88;38.26
35419;BME280;21525;41.240;16.500;2023-02-12T11:54:19;102775.84;;;21.00;38.23
35419;BME280;21525;41.240;16.500;2023-02-12T11:56:46;102763.31;;;21.43;38.02
35419;BME280;21525;41.240;16.500;2023-02-12T12:01:53;102750.03;;;20.72;39.11
35419;BME280;21525;41.240;16.500;2023-02-12T12:04:23;102743.03;;;21.42;38.20
35419;BME280;21525;41.240;16.500;2023-02-12T12:06:59;102740.91;;;21.86;38.02
35419;BME280;21525;41.240;16.500;2023-02-12T12:09:42;102725.38;;;21.43;38.38
35419;BME280;21525;41.240;16.500;2023-02-12T12:12:20;102731.63;;;21.05;39.20
35419;BME280;21525;41.240;16.500;2023-02-12T12:17:49;102732.16;;;21.84;38.72
35419;BME280;21525;41.240;16.500;2023-02-12T12:21:25;102728.97;;;21.05;40.06
35419;BME280;21525;41.240;16.500;2023-02-12T12:23:56;102729.19;;;21.31;39.74
35419;BME280;21525;41.240;16.500;2023-02-12T12:26:30;102730.66;;;21.43;40.12
35419;BME280;21525;41.240;16.500;2023-02-12T12:34:20;102718.41;;;21.71;40.92
35419;BME280;21525;41.240;16.500;2023-02-12T12:58:59;102728.47;;;21.90;42.76
35419;BME280;21525;41.240;16.500;2023-02-12T13:04:41;102737.47;;;21.16;44.70
35419;BME280;21525;41.240;16.500;2023-02-12T13:07:37;102734.84;;;21.16;45.01
35419;BME280;21525;41.240;16.500;2023-02-12T13:27:27;102740.97;;;20.45;44.12
35419;BME280;21525;41.240;16.500;2023-02-12T13:30:04;102730.88;;;20.63;43.93
35419;BME280;21525;41.240;16.500;2023-02-12T13:32:40;102737.63;;;20.36;43.94
35419;BME280;21525;41.240;16.500;2023-02-12T13:35:14;102742.34;;;19.78;42.40
35419;BME280;21525;41.240;16.500;2023-02-12T13:37:45;102738.34;;;20.02;40.95
35419;BME280;21525;41.240;16.500;2023-02-12T13:40:24;102738.09;;;19.70;41.31
35419;BME280;21525;41.240;16.500;2023-02-12T13:42:58;102736.59;;;19.55;41.74
35419;BME280;21525;41.240;16.500;2023-02-12T13:45:33;102751.22;;;19.74;41.15
35419;BME280;21525;41.240;16.500;2023-02-12T13:51:06;102745.84;;;19.79;39.68
35419;BME280;21525;41.240;16.500;2023-02-12T13:56:37;102744.53;;;20.00;36.54
35419;BME280;21525;41.240;16.500;2023-02-12T14:02:26;102749.69;;;20.07;38.40
35419;BME280;21525;41.240;16.500;2023-02-12T14:07:19;102746.94;;;20.54;38.52
35419;BME280;21525;41.240;16.500;2023-02-12T14:14:52;102748.69;;;19.68;38.05
35419;BME280;21525;41.240;16.500;2023-02-12T14:20:21;102759.53;;;19.99;38.61
35419;BME280;21525;41.240;16.500;2023-02-12T14:27:56;102772.63;;;19.58;37.20
35419;BME280;21525;41.240;16.500;2023-02-12T14:30:35;102774.38;;;19.59;36.78
35419;BME280;21525;41.240;16.500;2023-02-12T14:35:42;102774.28;;;19.63;37.86
35419;BME280;21525;41.240;16.500;2023-02-12T14:40:48;102771.63;;;19.65;37.85
35419;BME280;21525;41.240;16.500;2023-02-12T14:45:56;102760.56;;;20.34;36.14
35419;BME280;21525;41.240;16.500;2023-02-12T14:48:59;102762.88;;;20.07;36.68
35419;BME280;21525;41.240;16.500;2023-02-12T14:54:03;102779.75;;;19.53;37.52
35419;BME280;21525;41.240;16.500;2023-02-12T14:56:36;102776.53;;;18.80;39.84
35419;BME280;21525;41.240;16.500;2023-02-12T14:59:05;102765.25;;;19.76;39.00
35419;BME280;21525;41.240;16.500;2023-02-12T15:01:39;102767.13;;;19.71;40.28
35419;BME280;21525;41.240;16.500;2023-02-12T15:04:29;102769.38;;;18.87;40.03
35419;BME280;21525;41.240;16.500;2023-02-12T15:07:11;102773.94;;;18.78;39.24
35419;BME280;21525;41.240;16.500;2023-02-12T15:09:46;102780.22;;;19.24;39.10
35419;BME280;21525;41.240;16.500;2023-02-12T15:12:19;102769.84;;;19.15;38.86
35419;BME280;21525;41.240;16.500;2023-02-12T15:15:00;102770.31;;;19.38;39.36
35419;BME280;21525;41.240;16.500;2023-02-12T15:17:38;102779.69;;;19.03;40.54
35419;BME280;21525;41.240;16.500;2023-02-12T15:20:29;102779.03;;;19.43;39.92
35419;BME280;21525;41.240;16.500;2023-02-12T15:22:57;102783.59;;;19.33;40.78
35419;BME280;21525;41.240;16.500;2023-02-12T15:25:29;102788.41;;;19.61;40.28
35419;BME280;21525;41.240;16.500;2023-02-12T15:28:20;102778.72;;;19.61;40.63
35419;BME280;21525;41.240;16.500;2023-02-12T15:30:49;102780.66;;;18.98;42.41
35419;BME280;21525;41.240;16.500;2023-02-12T15:33:33;102785.94;;;18.96;42.46
35419;BME280;21525;41.240;16.500;2023-02-12T15:36:03;102789.81;;;18.74;42.86
35419;BME280;21525;41.240;16.500;2023-02-12T15:38:34;102795.53;;;19.02;42.77
35419;BME280;21525;41.240;16.500;2023-02-12T15:41:02;102793.47;;;19.21;41.83
35419;BME280;21525;41.240;16.500;2023-02-12T15:43:31;102791.91;;;19.63;41.12